sensor_id;sensor_type;location;lat;lon;timestamp;P1;durP1;ratioP1;P2;durP2;ratioP2
74213;SDS011;62576;55.694;37.494;2024-02-26T00:02:26;10.38;;;3.03;;
74213;SDS011;62576;55.694;37.494;2024-02-26T00:04:56;10.18;;;3.25;;
74213;SDS011;62576;55.694;37.494;2024-02-26T00:07:26;9.90;;;3.55;;
74213;SDS011;62576;55.694;37.494;2024-02-26T00:09:56;7.47;;;3.28;;
74213;SDS011;62576;55.694;37.494;2024-02-26T00:12:27;8.13;;;2.83;;
74213;SDS011;62576;55.694;37.494;2024-02-26T00:14:57;9.23;;;3.38;;
74213;SDS011;62576;55.694;37.494;2024-02-26T00:17:27;9.27;;;2.90;;
74213;SDS011;62576;55.694;37.494;2024-02-26T00:19:57;8.93;;;2.75;;
74213;SDS011;62576;55.694;37.494;2024-02-26T00:22:28;7.55;;;3.17;;
74213;SDS011;62576;55.694;37.494;2024-02-26T00:24:58;8.43;;;3.38;;
74213;SDS011;62576;55.694;37.494;2024-02-26T00:27:30;9.18;;;3.28;;
74213;SDS011;62576;55.694;37.494;2024-02-26T00:30:00;7.63;;;2.95;;
74213;SDS011;62576;55.694;37.494;2024-02-26T00:32:29;10.93;;;3.40;;
74213;SDS011;62576;55.694;37.494;2024-02-26T00:35:00;6.35;;;3.00;;
74213;SDS011;62576;55.694;37.494;2024-02-26T00:37:29;8.10;;;3.30;;
74213;SDS011;62576;55.694;37.494;2024-02-26T00:39:59;8.30;;;3.40;;
74213;SDS011;62576;55.694;37.494;2024-02-26T00:42:31;6.72;;;2.95;;
74213;SDS011;62576;55.694;37.494;2024-02-26T00:45:01;7.82;;;3.40;;
74213;SDS011;62576;55.694;37.494;2024-02-26T00:47:31;7.03;;;2.83;;
74213;SDS011;62576;55.694;37.494;2024-02-26T00:50:01;8.48;;;3.20;;
74213;SDS011;62576;55.694;37.494;2024-02-26T00:52:28;7.88;;;3.08;;
74213;SDS011;62576;55.694;37.494;2024-02-26T00:54:58;8.63;;;3.40;;
74213;SDS011;62576;55.694;37.494;2024-02-26T00:57:29;7.43;;;3.00;;
74213;SDS011;62576;55.694;37.494;2024-02-26T01:00:00;12.55;;;3.30;;
74213;SDS011;62576;55.694;37.494;2024-02-26T01:02:31;10.70;;;3.13;;
74213;SDS011;62576;55.694;37.494;2024-02-26T01:05:01;7.80;;;2.72;;
74213;SDS011;62576;55.694;37.494;2024-02-26T01:07:32;5.93;;;2.70;;
74213;SDS011;62576;55.694;37.494;2024-02-26T01:10:04;6.70;;;2.83;;
74213;SDS011;62576;55.694;37.494;2024-02-26T01:12:36;6.78;;;2.60;;
74213;SDS011;62576;55.694;37.494;2024-02-26T01:15:06;6.63;;;2.63;;
74213;SDS011;62576;55.694;37.494;2024-02-26T01:17:37;5.82;;;2.67;;
74213;SDS011;62576;55.694;37.494;2024-02-26T01:20:07;7.38;;;2.88;;
74213;SDS011;62576;55.694;37.494;2024-02-26T01:22:38;10.77;;;2.97;;
74213;SDS011;62576;55.694;37.494;2024-02-26T01:25:09;6.45;;;2.80;;
74213;SDS011;62576;55.694;37.494;2024-02-26T01:27:40;7.57;;;2.80;;
74213;SDS011;62576;55.694;37.494;2024-02-26T01:30:12;6.77;;;2.10;;
74213;SDS011;62576;55.694;37.494;2024-02-26T01:32:44;7.05;;;2.85;;
74213;SDS011;62576;55.694;37.494;2024-02-26T01:35:14;5.60;;;2.35;;
74213;SDS011;62576;55.694;37.494;2024-02-26T01:37:44;8.30;;;2.50;;
74213;SDS011;62576;55.694;37.494;2024-02-26T01:40:14;8.63;;;2.58;;
74213;SDS011;62576;55.694;37.494;2024-02-26T01:42:49;7.32;;;2.60;;
74213;SDS011;62576;55.694;37.494;2024-02-26T01:45:22;9.63;;;2.80;;
74213;SDS011;62576;55.694;37.494;2024-02-26T01:47:53;6.25;;;2.78;;
74213;SDS011;62576;55.694;37.494;2024-02-26T01:50:24;8.52;;;2.60;;
74213;SDS011;62576;55.694;37.494;2024-02-26T01:52:53;5.85;;;2.40;;
74213;SDS011;62576;55.694;37.494;2024-02-26T01:55:24;6.53;;;2.63;;
74213;SDS011;62576;55.694;37.494;2024-02-26T01:57:57;5.60;;;2.45;;
74213;SDS011;62576;55.694;37.494;2024-02-26T02:00:27;7.65;;;2.75;;
74213;SDS011;62576;55.694;37.494;2024-02-26T02:02:58;5.65;;;2.30;;
74213;SDS011;62576;55.694;37.494;2024-02-26T02:05:28;6.95;;;2.50;;
74213;SDS011;62576;55.694;37.494;2024-02-26T02:07:58;5.47;;;2.10;;
74213;SDS011;62576;55.694;37.494;2024-02-26T02:10:29;5.68;;;2.17;;
74213;SDS011;62576;55.694;37.494;2024-02-26T02:13:01;6.00;;;2.50;;
74213;SDS011;62576;55.694;37.494;2024-02-26T02:15:30;5.10;;;2.30;;
74213;SDS011;62576;55.694;37.494;2024-02-26T02:17:58;6.20;;;2.35;;
74213;SDS011;62576;55.694;37.494;2024-02-26T02:20:33;4.72;;;2.10;;
74213;SDS011;62576;55.694;37.494;2024-02-26T02:23:03;7.75;;;2.30;;
74213;SDS011;62576;55.694;37.494;2024-02-26T02:25:31;8.07;;;2.30;;
74213;SDS011;62576;55.694;37.494;2024-02-26T02:28:01;6.55;;;2.10;;
74213;SDS011;62576;55.694;37.494;2024-02-26T02:30:31;5.93;;;2.10;;
74213;SDS011;62576;55.694;37.494;2024-02-26T02:33:04;6.07;;;2.33;;
74213;SDS011;62576;55.694;37.494;2024-02-26T02:35:36;3.72;;;1.65;;
74213;SDS011;62576;55.694;37.494;2024-02-26T02:38:06;5.13;;;2.25;;
74213;SDS011;62576;55.694;37.494;2024-02-26T02:40:36;5.30;;;1.88;;
74213;SDS011;62576;55.694;37.494;2024-02-26T02:43:12;7.43;;;1.92;;
74213;SDS011;62576;55.694;37.494;2024-02-26T02:45:42;6.13;;;2.38;;
74213;SDS011;62576;55.694;37.494;2024-02-26T02:48:12;5.85;;;2.22;;
74213;SDS011;62576;55.694;37.494;2024-02-26T02:50:44;6.18;;;2.08;;
74213;SDS011;62576;55.694;37.494;2024-02-26T02:53:12;7.35;;;2.20;;
74213;SDS011;62576;55.694;37.494;2024-02-26T02:55:44;3.92;;;1.77;;
74213;SDS011;62576;55.694;37.494;2024-02-26T02:58:14;5.68;;;1.90;;
74213;SDS011;62576;55.694;37.494;2024-02-26T03:00:45;5.72;;;2.15;;
74213;SDS011;62576;55.694;37.494;2024-02-26T03:03:15;4.55;;;1.80;;
74213;SDS011;62576;55.694;37.494;2024-02-26T03:05:46;9.30;;;2.50;;
74213;SDS011;62576;55.694;37.494;2024-02-26T03:08:16;7.50;;;1.88;;
74213;SDS011;62576;55.694;37.494;2024-02-26T03:10:47;7.85;;;2.17;;
74213;SDS011;62576;55.694;37.494;2024-02-26T03:13:17;5.75;;;2.08;;
74213;SDS011;62576;55.694;37.494;2024-02-26T03:15:47;4.80;;;1.90;;
74213;SDS011;62576;55.694;37.494;2024-02-26T03:18:18;5.82;;;2.03;;
74213;SDS011;62576;55.694;37.494;2024-02-26T03:20:50;7.20;;;2.22;;
74213;SDS011;62576;55.694;37.494;2024-02-26T03:23:20;5.80;;;2.60;;
74213;SDS011;62576;55.694;37.494;2024-02-26T03:25:50;6.63;;;1.92;;
74213;SDS011;62576;55.694;37.494;2024-02-26T03:28:20;5.40;;;2.15;;
74213;SDS011;62576;55.694;37.494;2024-02-26T03:30:50;4.50;;;2.05;;
74213;SDS011;62576;55.694;37.494;2024-02-26T03:33:20;3.42;;;1.80;;
74213;SDS011;62576;55.694;37.494;2024-02-26T03:35:52;5.63;;;2.17;;
74213;SDS011;62576;55.694;37.494;2024-02-26T03:38:22;7.00;;;2.10;;
74213;SDS011;62576;55.694;37.494;2024-02-26T03:40:52;6.80;;;2.22;;
74213;SDS011;62576;55.694;37.494;2024-02-26T03:43:22;5.50;;;2.10;;
74213;SDS011;62576;55.694;37.494;2024-02-26T03:45:52;6.10;;;2.20;;
74213;SDS011;62576;55.694;37.494;2024-02-26T03:48:22;7.60;;;2.20;;
74213;SDS011;62576;55.694;37.494;2024-02-26T03:50:54;5.43;;;2.25;;
74213;SDS011;62576;55.694;37.494;2024-02-26T03:53:21;12.15;;;2.03;;
74213;SDS011;62576;55.694;37.494;2024-02-26T03:55:51;6.47;;;2.50;;
74213;SDS011;62576;55.694;37.494;2024-02-26T03:58:21;6.32;;;2.30;;
74213;SDS011;62576;55.694;37.494;2024-02-26T04:00:51;6.70;;;2.22;;
74213;SDS011;62576;55.694;37.494;2024-02-26T04:03:21;5.65;;;2.13;;
74213;SDS011;62576;55.694;37.494;2024-02-26T04:05:53;6.97;;;2.25;;
74213;SDS011;62576;55.694;37.494;2024-02-26T04:08:23;5.93;;;2.20;;
74213;SDS011;62576;55.694;37.494;2024-02-26T04:10:53;6.88;;;1.92;;
74213;SDS011;62576;55.694;37.494;2024-02-26T04:13:24;5.38;;;2.10;;
74213;SDS011;62576;55.694;37.494;2024-02-26T04:15:54;5.75;;;2.17;;
74213;SDS011;62576;55.694;37.494;2024-02-26T04:18:24;7.90;;;2.20;;
74213;SDS011;62576;55.694;37.494;2024-02-26T04:20:55;4.03;;;1.83;;
74213;SDS011;62576;55.694;37.494;2024-02-26T04:23:26;9.10;;;1.90;;
74213;SDS011;62576;55.694;37.494;2024-02-26T04:25:56;7.05;;;2.22;;
74213;SDS011;62576;55.694;37.494;2024-02-26T04:28:26;6.75;;;2.33;;
74213;SDS011;62576;55.694;37.494;2024-02-26T04:30:57;8.18;;;2.10;;
74213;SDS011;62576;55.694;37.494;2024-02-26T04:33:27;4.80;;;1.88;;
74213;SDS011;62576;55.694;37.494;2024-02-26T04:35:59;7.25;;;2.28;;
74213;SDS011;62576;55.694;37.494;2024-02-26T04:38:29;5.50;;;2.20;;
74213;SDS011;62576;55.694;37.494;2024-02-26T04:40:59;5.55;;;2.10;;
74213;SDS011;62576;55.694;37.494;2024-02-26T04:43:29;4.45;;;2.00;;
74213;SDS011;62576;55.694;37.494;2024-02-26T04:45:58;5.07;;;2.28;;
74213;SDS011;62576;55.694;37.494;2024-02-26T04:48:28;9.23;;;3.22;;
74213;SDS011;62576;55.694;37.494;2024-02-26T04:50:59;8.02;;;2.65;;
74213;SDS011;62576;55.694;37.494;2024-02-26T04:53:27;8.13;;;2.33;;
74213;SDS011;62576;55.694;37.494;2024-02-26T04:56:00;6.68;;;2.47;;
74213;SDS011;62576;55.694;37.494;2024-02-26T04:58:30;8.85;;;2.55;;
74213;SDS011;62576;55.694;37.494;2024-02-26T05:01:03;9.43;;;2.70;;
74213;SDS011;62576;55.694;37.494;2024-02-26T05:03:33;5.97;;;2.53;;
74213;SDS011;62576;55.694;37.494;2024-02-26T05:06:05;6.30;;;2.60;;
74213;SDS011;62576;55.694;37.494;2024-02-26T05:08:35;6.57;;;2.70;;
74213;SDS011;62576;55.694;37.494;2024-02-26T05:11:06;9.50;;;2.65;;
74213;SDS011;62576;55.694;37.494;2024-02-26T05:13:37;10.88;;;2.67;;
74213;SDS011;62576;55.694;37.494;2024-02-26T05:16:07;8.13;;;2.90;;
74213;SDS011;62576;55.694;37.494;2024-02-26T05:18:37;7.63;;;2.92;;
74213;SDS011;62576;55.694;37.494;2024-02-26T05:21:09;6.50;;;2.58;;
74213;SDS011;62576;55.694;37.494;2024-02-26T05:23:39;5.00;;;2.22;;
74213;SDS011;62576;55.694;37.494;2024-02-26T05:26:11;6.88;;;2.50;;
74213;SDS011;62576;55.694;37.494;2024-02-26T05:28:48;7.80;;;2.78;;
74213;SDS011;62576;55.694;37.494;2024-02-26T05:31:18;8.15;;;2.55;;
74213;SDS011;62576;55.694;37.494;2024-02-26T05:33:48;6.85;;;2.30;;
74213;SDS011;62576;55.694;37.494;2024-02-26T05:36:21;8.35;;;3.10;;
74213;SDS011;62576;55.694;37.494;2024-02-26T05:38:51;9.63;;;3.20;;
74213;SDS011;62576;55.694;37.494;2024-02-26T05:41:21;9.85;;;3.08;;
74213;SDS011;62576;55.694;37.494;2024-02-26T05:43:54;8.25;;;2.92;;
74213;SDS011;62576;55.694;37.494;2024-02-26T05:46:24;8.45;;;3.53;;
74213;SDS011;62576;55.694;37.494;2024-02-26T05:48:55;8.63;;;3.15;;
74213;SDS011;62576;55.694;37.494;2024-02-26T05:51:27;6.07;;;2.70;;
74213;SDS011;62576;55.694;37.494;2024-02-26T05:53:57;7.90;;;2.97;;
74213;SDS011;62576;55.694;37.494;2024-02-26T05:56:24;9.10;;;3.47;;
74213;SDS011;62576;55.694;37.494;2024-02-26T05:58:54;8.05;;;3.05;;
74213;SDS011;62576;55.694;37.494;2024-02-26T06:01:24;8.95;;;3.10;;
74213;SDS011;62576;55.694;37.494;2024-02-26T06:03:56;8.45;;;3.03;;
74213;SDS011;62576;55.694;37.494;2024-02-26T06:06:28;7.57;;;3.00;;
74213;SDS011;62576;55.694;37.494;2024-02-26T06:08:58;8.20;;;3.25;;
74213;SDS011;62576;55.694;37.494;2024-02-26T06:11:28;7.93;;;3.17;;
74213;SDS011;62576;55.694;37.494;2024-02-26T06:13:58;11.93;;;3.40;;
74213;SDS011;62576;55.694;37.494;2024-02-26T06:16:29;7.43;;;3.20;;
74213;SDS011;62576;55.694;37.494;2024-02-26T06:18:59;9.45;;;3.15;;
74213;SDS011;62576;55.694;37.494;2024-02-26T06:21:31;7.65;;;2.80;;
74213;SDS011;62576;55.694;37.494;2024-02-26T06:24:01;7.47;;;3.38;;
74213;SDS011;62576;55.694;37.494;2024-02-26T06:26:32;11.45;;;3.25;;
74213;SDS011;62576;55.694;37.494;2024-02-26T06:29:02;10.75;;;3.72;;
74213;SDS011;62576;55.694;37.494;2024-02-26T06:31:32;9.25;;;3.38;;
74213;SDS011;62576;55.694;37.494;2024-02-26T06:34:02;8.20;;;3.78;;
74213;SDS011;62576;55.694;37.494;2024-02-26T06:36:37;9.05;;;3.63;;
74213;SDS011;62576;55.694;37.494;2024-02-26T06:39:07;11.43;;;3.20;;
74213;SDS011;62576;55.694;37.494;2024-02-26T06:41:38;12.82;;;3.90;;
74213;SDS011;62576;55.694;37.494;2024-02-26T06:44:09;8.00;;;3.33;;
74213;SDS011;62576;55.694;37.494;2024-02-26T06:46:39;8.88;;;3.95;;
74213;SDS011;62576;55.694;37.494;2024-02-26T06:49:11;10.45;;;3.67;;
74213;SDS011;62576;55.694;37.494;2024-02-26T06:51:43;12.05;;;3.58;;
74213;SDS011;62576;55.694;37.494;2024-02-26T06:54:13;8.95;;;3.65;;
74213;SDS011;62576;55.694;37.494;2024-02-26T06:56:46;10.45;;;3.30;;
74213;SDS011;62576;55.694;37.494;2024-02-26T06:59:16;8.30;;;3.85;;
74213;SDS011;62576;55.694;37.494;2024-02-26T07:01:48;11.52;;;3.22;;
74213;SDS011;62576;55.694;37.494;2024-02-26T07:04:18;10.48;;;4.13;;
74213;SDS011;62576;55.694;37.494;2024-02-26T07:06:50;9.57;;;3.40;;
74213;SDS011;62576;55.694;37.494;2024-02-26T07:09:20;8.77;;;3.40;;
74213;SDS011;62576;55.694;37.494;2024-02-26T07:11:50;8.07;;;2.92;;
74213;SDS011;62576;55.694;37.494;2024-02-26T07:14:20;11.52;;;3.63;;
74213;SDS011;62576;55.694;37.494;2024-02-26T07:16:50;10.75;;;3.38;;
74213;SDS011;62576;55.694;37.494;2024-02-26T07:19:21;10.85;;;3.70;;
74213;SDS011;62576;55.694;37.494;2024-02-26T07:21:53;9.23;;;3.40;;
74213;SDS011;62576;55.694;37.494;2024-02-26T07:24:23;8.93;;;3.45;;
74213;SDS011;62576;55.694;37.494;2024-02-26T07:26:54;12.10;;;3.97;;
74213;SDS011;62576;55.694;37.494;2024-02-26T07:29:24;11.68;;;3.38;;
74213;SDS011;62576;55.694;37.494;2024-02-26T07:31:54;10.50;;;3.60;;
74213;SDS011;62576;55.694;37.494;2024-02-26T07:34:24;12.23;;;3.80;;
74213;SDS011;62576;55.694;37.494;2024-02-26T07:36:59;10.43;;;3.83;;
74213;SDS011;62576;55.694;37.494;2024-02-26T07:39:29;12.68;;;3.80;;
74213;SDS011;62576;55.694;37.494;2024-02-26T07:41:59;11.75;;;3.58;;
74213;SDS011;62576;55.694;37.494;2024-02-26T07:44:29;8.70;;;3.72;;
74213;SDS011;62576;55.694;37.494;2024-02-26T07:46:59;8.52;;;3.50;;
74213;SDS011;62576;55.694;37.494;2024-02-26T07:49:29;17.50;;;3.92;;
74213;SDS011;62576;55.694;37.494;2024-02-26T07:52:01;10.88;;;3.92;;
74213;SDS011;62576;55.694;37.494;2024-02-26T07:54:31;13.32;;;4.03;;
74213;SDS011;62576;55.694;37.494;2024-02-26T07:57:01;11.25;;;3.85;;
74213;SDS011;62576;55.694;37.494;2024-02-26T07:59:33;11.85;;;4.03;;
74213;SDS011;62576;55.694;37.494;2024-02-26T08:02:04;9.73;;;4.22;;
74213;SDS011;62576;55.694;37.494;2024-02-26T08:04:34;12.82;;;3.85;;
74213;SDS011;62576;55.694;37.494;2024-02-26T08:07:06;12.07;;;3.95;;
74213;SDS011;62576;55.694;37.494;2024-02-26T08:09:36;11.73;;;3.97;;
74213;SDS011;62576;55.694;37.494;2024-02-26T08:12:06;12.85;;;3.90;;
74213;SDS011;62576;55.694;37.494;2024-02-26T08:14:37;9.55;;;3.72;;
74213;SDS011;62576;55.694;37.494;2024-02-26T08:17:07;10.05;;;3.75;;
74213;SDS011;62576;55.694;37.494;2024-02-26T08:19:37;11.63;;;4.20;;
74213;SDS011;62576;55.694;37.494;2024-02-26T08:22:09;11.88;;;3.80;;
74213;SDS011;62576;55.694;37.494;2024-02-26T08:24:44;9.30;;;3.38;;
74213;SDS011;62576;55.694;37.494;2024-02-26T08:27:12;13.80;;;3.53;;
74213;SDS011;62576;55.694;37.494;2024-02-26T08:29:42;9.43;;;3.55;;
74213;SDS011;62576;55.694;37.494;2024-02-26T08:32:12;13.00;;;3.95;;
74213;SDS011;62576;55.694;37.494;2024-02-26T08:34:42;10.68;;;4.20;;
74213;SDS011;62576;55.694;37.494;2024-02-26T08:37:14;13.73;;;4.05;;
74213;SDS011;62576;55.694;37.494;2024-02-26T08:39:44;10.73;;;3.60;;
74213;SDS011;62576;55.694;37.494;2024-02-26T08:42:14;11.75;;;3.85;;
74213;SDS011;62576;55.694;37.494;2024-02-26T08:44:44;8.13;;;3.47;;
74213;SDS011;62576;55.694;37.494;2024-02-26T08:47:15;10.15;;;3.58;;
74213;SDS011;62576;55.694;37.494;2024-02-26T08:49:45;6.93;;;2.65;;
74213;SDS011;62576;55.694;37.494;2024-02-26T08:52:17;7.40;;;3.47;;
74213;SDS011;62576;55.694;37.494;2024-02-26T08:54:47;10.70;;;3.40;;
74213;SDS011;62576;55.694;37.494;2024-02-26T08:57:18;10.52;;;3.70;;
74213;SDS011;62576;55.694;37.494;2024-02-26T08:59:48;12.73;;;3.28;;
74213;SDS011;62576;55.694;37.494;2024-02-26T09:02:18;14.55;;;3.97;;
74213;SDS011;62576;55.694;37.494;2024-02-26T09:04:49;10.48;;;3.47;;
74213;SDS011;62576;55.694;37.494;2024-02-26T09:07:23;15.82;;;4.25;;
74213;SDS011;62576;55.694;37.494;2024-02-26T09:09:53;9.02;;;3.00;;
74213;SDS011;62576;55.694;37.494;2024-02-26T09:12:24;11.73;;;3.72;;
74213;SDS011;62576;55.694;37.494;2024-02-26T09:14:54;10.55;;;3.55;;
74213;SDS011;62576;55.694;37.494;2024-02-26T09:17:22;11.20;;;3.90;;
74213;SDS011;62576;55.694;37.494;2024-02-26T09:19:52;8.48;;;3.47;;
74213;SDS011;62576;55.694;37.494;2024-02-26T09:22:24;7.80;;;3.35;;
74213;SDS011;62576;55.694;37.494;2024-02-26T09:24:54;8.32;;;3.03;;
74213;SDS011;62576;55.694;37.494;2024-02-26T09:27:27;10.40;;;3.65;;
74213;SDS011;62576;55.694;37.494;2024-02-26T09:29:59;13.20;;;3.90;;
74213;SDS011;62576;55.694;37.494;2024-02-26T09:32:31;14.20;;;4.15;;
74213;SDS011;62576;55.694;37.494;2024-02-26T09:35:02;9.40;;;3.65;;
74213;SDS011;62576;55.694;37.494;2024-02-26T09:37:34;10.35;;;4.15;;
74213;SDS011;62576;55.694;37.494;2024-02-26T09:40:05;10.20;;;3.30;;
74213;SDS011;62576;55.694;37.494;2024-02-26T09:42:40;11.10;;;3.42;;
74213;SDS011;62576;55.694;37.494;2024-02-26T09:45:17;6.57;;;3.17;;
74213;SDS011;62576;55.694;37.494;2024-02-26T09:47:48;10.85;;;3.50;;
74213;SDS011;62576;55.694;37.494;2024-02-26T09:50:19;8.98;;;3.00;;
74213;SDS011;62576;55.694;37.494;2024-02-26T09:52:49;8.38;;;2.90;;
74213;SDS011;62576;55.694;37.494;2024-02-26T09:55:21;7.90;;;3.30;;
74213;SDS011;62576;55.694;37.494;2024-02-26T09:57:53;9.02;;;3.45;;
74213;SDS011;62576;55.694;37.494;2024-02-26T10:00:28;10.45;;;3.58;;
74213;SDS011;62576;55.694;37.494;2024-02-26T10:05:51;10.10;;;3.28;;
74213;SDS011;62576;55.694;37.494;2024-02-26T10:08:25;9.93;;;3.90;;
74213;SDS011;62576;55.694;37.494;2024-02-26T10:10:56;8.10;;;3.22;;
74213;SDS011;62576;55.694;37.494;2024-02-26T10:13:26;14.15;;;4.05;;
74213;SDS011;62576;55.694;37.494;2024-02-26T10:15:56;10.07;;;3.65;;
74213;SDS011;62576;55.694;37.494;2024-02-26T10:18:26;13.93;;;4.03;;
74213;SDS011;62576;55.694;37.494;2024-02-26T10:21:00;11.00;;;3.58;;
74213;SDS011;62576;55.694;37.494;2024-02-26T10:23:35;9.85;;;3.33;;
74213;SDS011;62576;55.694;37.494;2024-02-26T10:26:05;10.10;;;3.65;;
74213;SDS011;62576;55.694;37.494;2024-02-26T10:28:36;8.45;;;3.58;;
74213;SDS011;62576;55.694;37.494;2024-02-26T10:31:07;11.88;;;3.65;;
74213;SDS011;62576;55.694;37.494;2024-02-26T10:33:38;10.57;;;3.70;;
74213;SDS011;62576;55.694;37.494;2024-02-26T10:36:08;12.40;;;3.90;;
74213;SDS011;62576;55.694;37.494;2024-02-26T10:38:40;10.13;;;3.53;;
74213;SDS011;62576;55.694;37.494;2024-02-26T10:41:13;13.88;;;3.70;;
74213;SDS011;62576;55.694;37.494;2024-02-26T10:46:29;10.77;;;3.67;;
74213;SDS011;62576;55.694;37.494;2024-02-26T10:49:00;7.60;;;3.75;;
74213;SDS011;62576;55.694;37.494;2024-02-26T10:51:31;10.63;;;3.90;;
74213;SDS011;62576;55.694;37.494;2024-02-26T10:54:06;9.45;;;3.70;;
74213;SDS011;62576;55.694;37.494;2024-02-26T10:56:38;8.52;;;3.45;;
74213;SDS011;62576;55.694;37.494;2024-02-26T10:59:11;11.80;;;4.00;;
74213;SDS011;62576;55.694;37.494;2024-02-26T11:01:42;12.40;;;3.60;;
74213;SDS011;62576;55.694;37.494;2024-02-26T11:04:15;8.27;;;3.83;;
74213;SDS011;62576;55.694;37.494;2024-02-26T11:06:46;11.00;;;3.60;;
74213;SDS011;62576;55.694;37.494;2024-02-26T11:09:20;13.65;;;3.80;;
74213;SDS011;62576;55.694;37.494;2024-02-26T11:14:41;9.07;;;3.65;;
74213;SDS011;62576;55.694;37.494;2024-02-26T11:17:13;9.80;;;3.67;;
74213;SDS011;62576;55.694;37.494;2024-02-26T11:19:46;10.52;;;3.45;;
74213;SDS011;62576;55.694;37.494;2024-02-26T11:22:17;11.63;;;3.75;;
74213;SDS011;62576;55.694;37.494;2024-02-26T11:24:51;11.05;;;3.78;;
74213;SDS011;62576;55.694;37.494;2024-02-26T11:27:26;13.40;;;3.75;;
74213;SDS011;62576;55.694;37.494;2024-02-26T11:30:01;10.68;;;3.90;;
74213;SDS011;62576;55.694;37.494;2024-02-26T11:32:34;12.32;;;3.65;;
74213;SDS011;62576;55.694;37.494;2024-02-26T11:35:05;10.65;;;3.45;;
74213;SDS011;62576;55.694;37.494;2024-02-26T11:37:38;11.15;;;3.88;;
74213;SDS011;62576;55.694;37.494;2024-02-26T11:40:11;12.25;;;3.97;;
74213;SDS011;62576;55.694;37.494;2024-02-26T11:42:48;10.45;;;3.70;;
74213;SDS011;62576;55.694;37.494;2024-02-26T11:48:23;12.75;;;3.40;;
74213;SDS011;62576;55.694;37.494;2024-02-26T11:50:54;10.85;;;3.80;;
74213;SDS011;62576;55.694;37.494;2024-02-26T11:53:24;9.67;;;4.27;;
74213;SDS011;62576;55.694;37.494;2024-02-26T11:58:57;15.52;;;4.03;;
74213;SDS011;62576;55.694;37.494;2024-02-26T12:01:44;11.35;;;3.83;;
74213;SDS011;62576;55.694;37.494;2024-02-26T12:04:17;8.52;;;4.20;;
74213;SDS011;62576;55.694;37.494;2024-02-26T12:06:52;11.65;;;3.97;;
74213;SDS011;62576;55.694;37.494;2024-02-26T12:09:31;11.52;;;4.30;;
74213;SDS011;62576;55.694;37.494;2024-02-26T12:12:07;12.32;;;4.20;;
74213;SDS011;62576;55.694;37.494;2024-02-26T12:14:38;12.60;;;4.68;;
74213;SDS011;62576;55.694;37.494;2024-02-26T12:17:18;12.88;;;4.05;;
74213;SDS011;62576;55.694;37.494;2024-02-26T12:19:49;10.05;;;4.18;;
74213;SDS011;62576;55.694;37.494;2024-02-26T12:22:21;9.98;;;4.20;;
74213;SDS011;62576;55.694;37.494;2024-02-26T12:24:58;17.98;;;4.78;;
74213;SDS011;62576;55.694;37.494;2024-02-26T12:27:30;9.20;;;4.30;;
74213;SDS011;62576;55.694;37.494;2024-02-26T12:30:01;12.60;;;4.13;;
74213;SDS011;62576;55.694;37.494;2024-02-26T12:32:32;13.20;;;4.32;;
74213;SDS011;62576;55.694;37.494;2024-02-26T12:35:03;10.85;;;4.25;;
74213;SDS011;62576;55.694;37.494;2024-02-26T12:37:34;10.45;;;3.80;;
74213;SDS011;62576;55.694;37.494;2024-02-26T12:40:07;10.98;;;4.13;;
74213;SDS011;62576;55.694;37.494;2024-02-26T12:42:41;10.38;;;3.63;;
74213;SDS011;62576;55.694;37.494;2024-02-26T12:45:30;13.85;;;3.67;;
74213;SDS011;62576;55.694;37.494;2024-02-26T12:48:02;9.80;;;4.05;;
74213;SDS011;62576;55.694;37.494;2024-02-26T12:50:35;8.75;;;3.60;;
74213;SDS011;62576;55.694;37.494;2024-02-26T12:53:02;12.38;;;4.35;;
74213;SDS011;62576;55.694;37.494;2024-02-26T12:55:32;12.73;;;3.83;;
74213;SDS011;62576;55.694;37.494;2024-02-26T12:58:06;9.57;;;3.60;;
74213;SDS011;62576;55.694;37.494;2024-02-26T13:00:36;10.65;;;3.97;;
74213;SDS011;62576;55.694;37.494;2024-02-26T13:03:07;12.30;;;3.72;;
74213;SDS011;62576;55.694;37.494;2024-02-26T13:05:37;10.25;;;3.90;;
74213;SDS011;62576;55.694;37.494;2024-02-26T13:08:08;13.20;;;4.90;;
74213;SDS011;62576;55.694;37.494;2024-02-26T13:10:38;10.68;;;3.88;;
74213;SDS011;62576;55.694;37.494;2024-02-26T13:13:10;9.68;;;3.65;;
74213;SDS011;62576;55.694;37.494;2024-02-26T13:15:40;11.90;;;3.40;;
74213;SDS011;62576;55.694;37.494;2024-02-26T13:18:14;10.90;;;3.78;;
74213;SDS011;62576;55.694;37.494;2024-02-26T13:20:46;13.57;;;3.75;;
74213;SDS011;62576;55.694;37.494;2024-02-26T13:23:17;10.10;;;3.50;;
74213;SDS011;62576;55.694;37.494;2024-02-26T13:26:04;9.70;;;3.67;;
74213;SDS011;62576;55.694;37.494;2024-02-26T13:28:36;11.60;;;3.42;;
74213;SDS011;62576;55.694;37.494;2024-02-26T13:31:06;8.43;;;3.75;;
74213;SDS011;62576;55.694;37.494;2024-02-26T13:33:38;12.48;;;3.50;;
74213;SDS011;62576;55.694;37.494;2024-02-26T13:36:08;14.52;;;3.78;;
74213;SDS011;62576;55.694;37.494;2024-02-26T13:38:40;14.70;;;3.30;;
74213;SDS011;62576;55.694;37.494;2024-02-26T13:41:21;12.23;;;3.70;;
74213;SDS011;62576;55.694;37.494;2024-02-26T13:43:53;10.52;;;3.53;;
74213;SDS011;62576;55.694;37.494;2024-02-26T13:46:23;9.50;;;3.58;;
74213;SDS011;62576;55.694;37.494;2024-02-26T13:48:53;11.05;;;3.58;;
74213;SDS011;62576;55.694;37.494;2024-02-26T13:51:23;9.60;;;3.20;;
74213;SDS011;62576;55.694;37.494;2024-02-26T13:56:48;8.63;;;3.08;;
74213;SDS011;62576;55.694;37.494;2024-02-26T13:59:22;8.02;;;3.05;;
74213;SDS011;62576;55.694;37.494;2024-02-26T14:01:52;8.27;;;3.00;;
74213;SDS011;62576;55.694;37.494;2024-02-26T14:04:20;12.32;;;3.58;;
74213;SDS011;62576;55.694;37.494;2024-02-26T14:06:50;7.95;;;2.97;;
74213;SDS011;62576;55.694;37.494;2024-02-26T14:09:18;12.93;;;3.47;;
74213;SDS011;62576;55.694;37.494;2024-02-26T14:11:49;8.07;;;3.17;;
74213;SDS011;62576;55.694;37.494;2024-02-26T14:14:19;10.32;;;3.30;;
74213;SDS011;62576;55.694;37.494;2024-02-26T14:16:51;7.82;;;2.80;;
74213;SDS011;62576;55.694;37.494;2024-02-26T14:19:21;10.23;;;3.15;;
74213;SDS011;62576;55.694;37.494;2024-02-26T14:21:51;9.68;;;2.90;;
74213;SDS011;62576;55.694;37.494;2024-02-26T14:24:21;8.98;;;3.08;;
74213;SDS011;62576;55.694;37.494;2024-02-26T14:26:51;6.90;;;2.45;;
74213;SDS011;62576;55.694;37.494;2024-02-26T14:29:21;9.50;;;2.80;;
74213;SDS011;62576;55.694;37.494;2024-02-26T14:31:53;10.38;;;2.85;;
74213;SDS011;62576;55.694;37.494;2024-02-26T14:34:24;9.53;;;2.70;;
74213;SDS011;62576;55.694;37.494;2024-02-26T14:36:54;9.77;;;3.00;;
74213;SDS011;62576;55.694;37.494;2024-02-26T14:39:24;7.13;;;2.38;;
74213;SDS011;62576;55.694;37.494;2024-02-26T14:41:54;6.45;;;2.70;;
74213;SDS011;62576;55.694;37.494;2024-02-26T14:44:25;8.23;;;2.70;;
74213;SDS011;62576;55.694;37.494;2024-02-26T14:46:57;7.50;;;2.47;;
74213;SDS011;62576;55.694;37.494;2024-02-26T14:49:27;8.50;;;2.30;;
74213;SDS011;62576;55.694;37.494;2024-02-26T14:51:59;5.68;;;2.22;;
74213;SDS011;62576;55.694;37.494;2024-02-26T14:54:31;8.68;;;2.63;;
74213;SDS011;62576;55.694;37.494;2024-02-26T14:59:35;8.43;;;2.47;;
74213;SDS011;62576;55.694;37.494;2024-02-26T15:02:08;9.15;;;2.80;;
74213;SDS011;62576;55.694;37.494;2024-02-26T15:04:38;8.37;;;2.90;;
74213;SDS011;62576;55.694;37.494;2024-02-26T15:07:08;5.47;;;2.10;;
74213;SDS011;62576;55.694;37.494;2024-02-26T15:09:39;6.07;;;2.20;;
74213;SDS011;62576;55.694;37.494;2024-02-26T15:12:09;7.10;;;2.60;;
74213;SDS011;62576;55.694;37.494;2024-02-26T15:14:39;9.77;;;2.85;;